createdAt,value
2023-01-30T05:07:22.217Z,41.92
2023-01-30T05:10:27.115Z,41.35
2023-01-30T05:13:43.430Z,38.97
2023-01-30T05:16:46.585Z,38.47
2023-01-30T05:19:50.355Z,37.78
2023-01-30T05:22:54.031Z,41.53
2023-01-30T05:25:58.054Z,37.90
2023-01-30T05:29:03.164Z,42.70
2023-01-30T05:32:06.238Z,35.38
2023-01-30T05:35:09.436Z,37.38
2023-01-30T05:38:12.047Z,34.70
2023-01-30T05:41:16.652Z,35.38
2023-01-30T05:44:19.641Z,37.92
2023-01-30T05:47:22.617Z,40.65
2023-01-30T05:50:25.241Z,36.35
2023-01-30T05:53:31.452Z,42.00
2023-01-30T05:56:34.253Z,34.45
2023-01-30T05:59:37.695Z,34.13
2023-01-30T06:02:40.276Z,32.88
2023-01-30T06:05:43.134Z,34.28
2023-01-30T06:08:46.359Z,37.30
2023-01-30T06:11:49.210Z,33.60
2023-01-30T06:14:52.054Z,36.92
2023-01-30T06:17:55.318Z,34.42
2023-01-30T06:20:57.962Z,33.85
2023-01-30T06:24:03.415Z,35.63
2023-01-30T06:27:05.980Z,34.33
2023-01-30T06:30:09.658Z,34.60
2023-01-30T06:33:12.419Z,34.53
2023-01-30T06:36:18.420Z,38.47
2023-01-30T06:39:25.277Z,39.60
2023-01-30T06:42:28.192Z,35.78
2023-01-30T06:45:30.975Z,35.58
2023-01-30T06:48:33.996Z,37.03
2023-01-30T06:51:36.658Z,35.30
2023-01-30T06:54:39.636Z,34.72
2023-01-30T06:57:43.515Z,32.85
2023-01-30T07:00:49.011Z,36.33
2023-01-30T07:07:02.488Z,39.92
2023-01-30T07:10:08.841Z,41.55
2023-01-30T07:13:12.669Z,36.55
2023-01-30T07:16:15.284Z,41.25
2023-01-30T07:19:18.187Z,41.75
2023-01-30T07:22:20.764Z,45.83
2023-01-30T07:25:26.242Z,46.33
2023-01-30T07:28:29.157Z,44.08
2023-01-30T07:31:32.917Z,48.10
2023-01-30T07:34:35.851Z,45.72
2023-01-30T07:37:41.532Z,42.20
2023-01-30T07:40:44.170Z,39.60
2023-01-30T07:43:49.307Z,38.63
2023-01-30T07:46:52.010Z,38.75
2023-01-30T07:49:54.966Z,37.70
2023-01-30T07:52:57.839Z,41.05
2023-01-30T07:56:05.978Z,43.92
2023-01-30T07:59:11.460Z,42.15
2023-01-30T08:02:14.584Z,38.33
2023-01-30T08:05:17.707Z,40.83
2023-01-30T08:08:20.462Z,38.67
2023-01-30T08:11:23.507Z,38.50
2023-01-30T08:14:28.784Z,39.80
2023-01-30T08:17:31.590Z,40.38
2023-01-30T08:20:34.482Z,36.00
2023-01-30T08:23:37.577Z,33.38
2023-01-30T08:26:40.542Z,35.25
2023-01-30T08:29:44.879Z,37.33
2023-01-30T08:32:48.211Z,29.55
2023-01-30T08:35:51.379Z,31.77
2023-01-30T08:38:54.017Z,30.08
2023-01-30T08:41:56.945Z,31.02
2023-01-30T08:44:59.503Z,28.20
2023-01-30T08:48:05.194Z,30.12
2023-01-30T08:51:07.840Z,31.05
2023-01-30T08:54:10.971Z,30.90
2023-01-30T08:57:14.929Z,31.10
2023-01-30T09:00:18.910Z,32.10
2023-01-30T09:03:21.734Z,32.97
2023-01-30T09:06:26.286Z,29.92
2023-01-30T09:09:30.239Z,35.45
2023-01-30T09:12:33.203Z,29.60
2023-01-30T09:15:38.051Z,31.23
2023-01-30T09:18:42.925Z,30.08
2023-01-30T09:21:45.574Z,30.10
2023-01-30T09:24:49.116Z,29.87
2023-01-30T09:27:51.891Z,30.37
2023-01-30T09:30:58.488Z,29.40
2023-01-30T09:34:01.378Z,29.00
2023-01-30T09:37:05.139Z,29.25
2023-01-30T09:40:16.144Z,30.75
2023-01-30T09:46:39.672Z,28.12
2023-01-30T09:49:54.436Z,28.27
2023-01-30T09:53:23.965Z,28.17
2023-01-30T09:56:26.887Z,29.02
2023-01-30T09:59:38.852Z,30.45
2023-01-30T10:02:52.255Z,32.22
2023-01-30T10:06:00.873Z,29.02
2023-01-30T10:09:27.383Z,29.37
2023-01-30T10:13:01.341Z,32.00
2023-01-30T10:19:40.372Z,30.95
2023-01-30T10:23:02.320Z,30.95
2023-01-30T10:26:15.586Z,35.33
2023-01-30T10:29:33.405Z,32.55
2023-01-30T10:32:46.445Z,31.92
2023-01-30T10:36:04.584Z,25.37
2023-01-30T10:39:22.745Z,25.83
2023-01-30T10:42:37.575Z,29.00
2023-01-30T10:45:54.531Z,24.67
2023-01-30T10:49:11.585Z,29.50
2023-01-30T10:52:36.063Z,33.47
2023-01-30T10:55:50.985Z,35.25
2023-01-30T10:59:32.681Z,35.60
2023-01-30T11:02:53.185Z,36.70
2023-01-30T11:06:11.750Z,39.00
2023-01-30T11:09:14.354Z,29.50
2023-01-30T11:12:17.248Z,32.10
2023-01-30T11:15:24.785Z,26.90
2023-01-30T11:19:17.312Z,29.95
2023-01-30T11:22:00.049Z,27.48
2023-01-30T11:25:14.911Z,30.62
2023-01-30T11:28:19.532Z,29.30
2023-01-30T11:31:40.265Z,28.65
2023-01-30T11:34:44.547Z,28.08
2023-01-30T11:37:48.073Z,28.02
2023-01-30T11:41:02.244Z,29.10
2023-01-30T11:44:05.736Z,29.73
2023-01-30T11:47:13.843Z,27.52
2023-01-30T11:50:30.780Z,26.52
2023-01-30T11:53:51.061Z,26.73
2023-01-30T11:56:58.839Z,25.60
2023-01-30T12:00:01.783Z,27.27
2023-01-30T12:03:18.217Z,27.00
2023-01-30T12:06:29.969Z,30.20
2023-01-30T12:09:35.835Z,29.02
2023-01-30T12:12:50.290Z,28.58
2023-01-30T12:16:04.396Z,25.25
2023-01-30T12:19:36.685Z,29.50
2023-01-30T12:22:49.721Z,27.92
2023-01-30T12:26:04.894Z,27.80
2023-01-30T12:29:19.753Z,29.48
2023-01-30T12:32:27.264Z,29.40
2023-01-30T12:35:59.853Z,30.73
2023-01-30T12:39:32.124Z,27.52
2023-01-30T12:43:00.697Z,28.15
2023-01-30T12:46:20.589Z,30.12
2023-01-30T12:49:52.506Z,32.80
2023-01-30T12:52:58.513Z,33.85
2023-01-30T12:56:12.126Z,30.80
2023-01-30T12:59:22.243Z,28.95
2023-01-30T13:02:26.463Z,33.60
2023-01-30T13:05:44.947Z,32.95
2023-01-30T13:09:15.752Z,31.33
2023-01-30T13:12:46.187Z,31.42
2023-01-30T13:15:49.350Z,30.00
2023-01-30T13:19:01.614Z,30.65
2023-01-30T13:22:17.563Z,31.20
2023-01-30T13:25:46.462Z,32.47
2023-01-30T13:28:57.502Z,35.10
2023-01-30T13:32:05.284Z,29.58
2023-01-30T13:35:35.595Z,32.10
2023-01-30T13:38:49.579Z,31.55
2023-01-30T13:41:56.580Z,31.33
2023-01-30T13:45:02.071Z,28.77
2023-01-30T13:48:26.667Z,32.28
2023-01-30T13:51:39.380Z,26.58
2023-01-30T13:55:05.074Z,30.73
2023-01-30T13:58:17.858Z,31.42
2023-01-30T14:01:23.079Z,33.55
2023-01-30T14:04:41.358Z,27.40
2023-01-30T14:07:45.250Z,27.13
2023-01-30T14:10:49.879Z,25.08
2023-01-30T14:13:55.663Z,25.80
2023-01-30T14:17:18.005Z,25.58
2023-01-30T14:20:21.450Z,28.27
2023-01-30T14:23:34.923Z,25.27
2023-01-30T14:26:55.543Z,25.37
2023-01-30T14:29:59.002Z,25.20
2023-01-30T14:33:15.813Z,23.20
2023-01-30T14:36:35.317Z,24.00
2023-01-30T14:39:40.334Z,23.52
2023-01-30T14:42:45.340Z,26.87
2023-01-30T14:45:52.694Z,26.30
2023-01-30T14:49:16.259Z,24.30
2023-01-30T14:52:40.656Z,22.60
2023-01-30T14:55:43.644Z,24.17
2023-01-30T14:59:02.801Z,25.75
2023-01-30T15:02:15.115Z,25.40
2023-01-30T15:05:40.494Z,21.65
2023-01-30T15:08:44.706Z,32.67
2023-01-30T15:11:58.998Z,23.40
2023-01-30T15:15:19.909Z,22.15
2023-01-30T15:26:21.668Z,26.67
2023-01-30T15:29:55.946Z,23.00
2023-01-30T15:33:29.342Z,23.75
2023-01-30T15:36:38.825Z,25.90
2023-01-30T15:39:41.381Z,26.92
2023-01-30T15:42:52.231Z,30.80
2023-01-30T15:46:21.314Z,23.90
2023-01-30T15:49:24.257Z,24.77
2023-01-30T15:52:44.906Z,22.55
2023-01-30T15:55:47.956Z,25.50
2023-01-30T15:58:51.420Z,24.40
2023-01-30T16:02:01.370Z,24.50
2023-01-30T16:05:04.776Z,25.10
2023-01-30T16:08:22.363Z,30.10
2023-01-30T16:11:38.821Z,25.95
2023-01-30T16:14:41.548Z,25.65
2023-01-30T16:17:55.286Z,27.52
2023-01-30T16:21:03.152Z,25.50
2023-01-30T16:24:19.507Z,24.37
2023-01-30T16:27:37.182Z,24.05
